Time;durP1;ratioP1;P1;durP2;ratioP2;P2;SDS_P1;SDS_P2;PMS_P1;PMS_P2;Temp;Humidity;BMP_temperature;BMP_pressure;BME280_temperature;BME280_humidity;BME280_pressure;Samples;Min_cycle;Max_cycle;Signal;HPM_P1;HPM_P2
2021/12/20 00:00:17;;;;;;;2.88;1.10;;;9.30;85.10;;;;;;5088357;28;20024;-82
2021/12/20 00:02:46;;;;;;;4.03;1.30;;;9.40;85.10;;;;;;5092332;28;20039;-82
2021/12/20 00:05:14;;;;;;;5.20;1.40;;;9.30;85.10;;;;;;5092163;28;20027;-82
2021/12/20 00:07:40;;;;;;;8.13;1.20;;;9.30;85.00;;;;;;5093823;28;20114;-82
2021/12/20 00:10:06;;;;;;;3.80;1.15;;;9.30;85.10;;;;;;5095289;28;20127;-82
2021/12/20 00:12:32;;;;;;;3.95;1.50;;;9.30;85.10;;;;;;5086141;28;20597;-81
2021/12/20 00:14:57;;;;;;;3.65;1.13;;;9.30;85.00;;;;;;5089287;28;20028;-83
2021/12/20 00:17:23;;;;;;;5.07;1.30;;;9.30;85.00;;;;;;5092193;28;20028;-84
2021/12/20 00:19:48;;;;;;;5.78;1.50;;;9.30;85.10;;;;;;5087433;28;20020;-83
2021/12/20 00:22:14;;;;;;;4.20;1.45;;;9.30;85.00;;;;;;5090199;28;20024;-81
2021/12/20 00:24:40;;;;;;;8.20;1.52;;;9.30;85.00;;;;;;5085695;28;20409;-81
2021/12/20 00:27:08;;;;;;;4.72;1.45;;;9.30;85.00;;;;;;5078124;28;20071;-82
2021/12/20 00:29:36;;;;;;;4.72;1.40;;;9.30;84.90;;;;;;5082617;28;20024;-82
2021/12/20 00:32:03;;;;;;;7.32;1.88;;;9.20;84.80;;;;;;5091662;28;20177;-82
2021/12/20 00:34:29;;;;;;;5.70;1.48;;;9.20;84.80;;;;;;5087613;28;20023;-81
2021/12/20 00:37:05;;;;;;;6.43;1.50;;;9.20;84.80;;;;;;5090535;28;20019;-82
2021/12/20 00:42:15;;;;;;;7.38;1.58;;;9.20;84.60;;;;;;5085657;28;20078;-82
2021/12/20 00:44:41;;;;;;;5.70;1.50;;;9.20;84.60;;;;;;5085678;28;20017;-82
2021/12/20 00:47:06;;;;;;;7.18;1.67;;;9.20;84.50;;;;;;5081421;28;20390;-81
2021/12/20 00:49:32;;;;;;;8.43;2.05;;;9.20;84.30;;;;;;5083456;28;20021;-81
2021/12/20 00:51:57;;;;;;;5.22;1.60;;;9.20;84.30;;;;;;5088665;28;20028;-82
2021/12/20 00:54:23;;;;;;;6.38;1.50;;;9.20;84.30;;;;;;5081791;28;20051;-82
2021/12/20 00:56:49;;;;;;;4.22;1.38;;;9.20;84.20;;;;;;5087032;28;20031;-82
2021/12/20 00:59:15;;;;;;;4.93;1.40;;;9.20;84.30;;;;;;5089012;28;20069;-81
2021/12/20 01:01:41;;;;;;;7.70;1.92;;;9.20;84.20;;;;;;5091050;28;20077;-83
2021/12/20 01:04:06;;;;;;;6.45;1.50;;;9.20;84.10;;;;;;5094301;28;20432;-83
2021/12/20 01:06:32;;;;;;;4.43;1.30;;;9.20;84.10;;;;;;5073441;28;20035;-83
2021/12/20 01:08:57;;;;;;;4.65;1.48;;;9.20;84.00;;;;;;5086523;28;20024;-82
2021/12/20 01:11:26;;;;;;;5.35;1.60;;;9.20;84.00;;;;;;5096024;28;20031;-82
2021/12/20 01:13:52;;;;;;;4.75;1.35;;;9.20;83.90;;;;;;5077975;28;20043;-84
2021/12/20 01:16:28;;;;;;;7.25;1.70;;;9.20;83.80;;;;;;5077183;28;20032;-83
2021/12/20 01:18:54;;;;;;;8.82;1.80;;;9.20;83.90;;;;;;5092750;28;20454;-84
2021/12/20 01:21:19;;;;;;;7.75;1.60;;;9.20;83.90;;;;;;5094956;28;20050;-84
2021/12/20 01:23:45;;;;;;;5.75;1.67;;;9.20;83.80;;;;;;5098719;28;20062;-83
2021/12/20 01:26:10;;;;;;;6.47;1.83;;;9.20;83.80;;;;;;5088304;28;20028;-83
2021/12/20 01:28:36;;;;;;;6.68;1.60;;;9.20;83.80;;;;;;5087431;28;20436;-84
2021/12/20 01:31:01;;;;;;;6.25;1.52;;;9.20;83.80;;;;;;5091391;28;20424;-83
2021/12/20 01:33:27;;;;;;;6.30;1.60;;;9.20;83.70;;;;;;5094005;28;20059;-83
2021/12/20 01:35:55;;;;;;;8.93;1.77;;;9.20;83.70;;;;;;5089850;28;20040;-84
2021/12/20 01:38:20;;;;;;;6.35;1.60;;;9.20;83.70;;;;;;5097443;28;20095;-84
2021/12/20 01:40:47;;;;;;;8.40;1.88;;;9.10;83.50;;;;;;5100229;28;20480;-83
2021/12/20 01:43:14;;;;;;;10.45;2.40;;;9.10;83.60;;;;;;5092681;28;20039;-83
2021/12/20 01:45:40;;;;;;;7.63;1.70;;;9.10;83.50;;;;;;5099738;28;20141;-84
2021/12/20 01:48:12;;;;;;;7.32;1.77;;;9.10;83.40;;;;;;5090423;28;20488;-83
2021/12/20 01:53:06;;;;;;;6.40;1.73;;;9.10;83.20;;;;;;5090176;28;20028;-82
2021/12/20 01:55:32;;;;;;;5.05;1.55;;;9.10;83.20;;;;;;5082336;28;20685;-81
2021/12/20 01:57:57;;;;;;;5.28;1.58;;;9.10;83.20;;;;;;5102232;28;20076;-81
2021/12/20 02:00:28;;;;;;;7.82;1.80;;;9.00;83.20;;;;;;5096085;28;20437;-81
2021/12/20 02:02:58;;;;;;;6.97;1.75;;;9.00;83.20;;;;;;5095459;28;20023;-82
2021/12/20 02:06:15;;;;;;;5.90;1.63;;;9.00;83.30;;;;;;5089366;28;20021;-82
2021/12/20 02:08:21;;;;;;;7.13;1.60;;;9.00;83.20;;;;;;5085456;28;20058;-84
2021/12/20 02:10:49;;;;;;;6.78;1.80;;;9.00;83.20;;;;;;5098894;28;20467;-85
2021/12/20 02:13:16;;;;;;;7.03;1.58;;;9.00;83.20;;;;;;5088975;28;20092;-85
2021/12/20 02:15:43;;;;;;;10.70;1.85;;;9.00;83.20;;;;;;5086572;28;20090;-85
2021/12/20 02:18:09;;;;;;;6.88;1.80;;;9.00;83.10;;;;;;5095020;28;20061;-85
2021/12/20 02:20:36;;;;;;;7.40;1.60;;;9.00;83.10;;;;;;5097120;28;20027;-84
2021/12/20 02:23:03;;;;;;;8.70;1.73;;;9.00;83.20;;;;;;5097004;28;20488;-85
2021/12/20 02:25:30;;;;;;;8.98;1.80;;;9.00;83.20;;;;;;5085817;28;20024;-85
2021/12/20 02:27:56;;;;;;;8.65;2.03;;;9.00;83.20;;;;;;5095336;28;20492;-84
2021/12/20 02:30:40;;;;;;;6.85;1.65;;;9.00;83.20;;;;;;5093605;28;20099;-83
2021/12/20 02:36:58;;;;;;;7.25;1.70;;;9.00;83.10;;;;;;5093245;28;20077;-84
2021/12/20 02:38:40;;;;;;;6.53;1.50;;;9.00;83.10;;;;;;5089648;28;20028;-84
2021/12/20 02:41:27;;;;;;;10.77;1.70;;;9.00;83.10;;;;;;5095379;27;20020;-83
2021/12/20 02:44:02;;;;;;;6.80;1.85;;;9.00;83.00;;;;;;5099915;28;20015;-84
2021/12/20 02:49:09;;;;;;;8.43;1.77;;;9.00;83.00;;;;;;5075047;28;20024;-85
2021/12/20 02:51:35;;;;;;;7.07;1.58;;;9.00;83.00;;;;;;5094493;28;20059;-84
2021/12/20 02:54:03;;;;;;;9.02;2.10;;;9.00;82.90;;;;;;5095074;28;20032;-82
2021/12/20 02:56:29;;;;;;;4.65;1.50;;;9.00;82.80;;;;;;5089275;28;20489;-83
2021/12/20 02:58:55;;;;;;;7.00;1.70;;;9.00;82.90;;;;;;5085789;28;20031;-83
2021/12/20 03:01:21;;;;;;;8.02;2.00;;;9.00;82.80;;;;;;5091304;28;20023;-83
2021/12/20 03:03:48;;;;;;;7.35;1.70;;;9.00;82.80;;;;;;5097979;28;20607;-83
2021/12/20 03:06:29;;;;;;;8.13;2.00;;;9.00;82.70;;;;;;5093835;28;20042;-82
2021/12/20 03:08:57;;;;;;;6.32;1.73;;;9.00;82.70;;;;;;5090592;28;20349;-83
2021/12/20 03:11:25;;;;;;;6.88;1.75;;;9.00;82.70;;;;;;5096873;28;20062;-83
2021/12/20 03:13:56;;;;;;;7.28;1.50;;;9.00;82.70;;;;;;5095407;28;20061;-82
2021/12/20 03:16:22;;;;;;;6.90;1.70;;;8.90;82.60;;;;;;5096724;28;20421;-83
2021/12/20 03:18:47;;;;;;;7.05;1.60;;;8.90;83.20;;;;;;5091887;28;20020;-83
2021/12/20 03:21:13;;;;;;;5.22;1.50;;;9.00;82.60;;;;;;5082003;28;20035;-82
2021/12/20 03:23:39;;;;;;;5.57;1.65;;;9.00;82.50;;;;;;5088035;28;20056;-82
2021/12/20 03:26:05;;;;;;;8.75;1.88;;;9.00;82.50;;;;;;5081983;28;20039;-82
2021/12/20 03:28:30;;;;;;;10.57;1.73;;;8.90;82.50;;;;;;5095259;28;20028;-82
2021/12/20 03:30:56;;;;;;;6.30;1.70;;;8.90;82.50;;;;;;5090890;28;20023;-82
2021/12/20 03:33:21;;;;;;;9.65;2.00;;;8.90;82.60;;;;;;5093129;28;20087;-82
2021/12/20 03:35:47;;;;;;;7.80;1.90;;;8.80;82.50;;;;;;5086275;28;20039;-82
2021/12/20 03:38:13;;;;;;;7.65;1.70;;;8.80;82.40;;;;;;5102127;28;20020;-83
2021/12/20 03:40:39;;;;;;;9.27;2.00;;;8.80;82.50;;;;;;5097965;28;20541;-82
2021/12/20 03:43:06;;;;;;;7.00;2.03;;;8.80;82.40;;;;;;5093339;28;20031;-82
2021/12/20 03:45:33;;;;;;;7.20;1.60;;;8.80;82.40;;;;;;5086584;28;20032;-82
2021/12/20 03:47:59;;;;;;;10.32;1.70;;;8.80;82.40;;;;;;5096868;28;20365;-83
2021/12/20 03:50:24;;;;;;;7.53;1.92;;;8.80;82.40;;;;;;5089417;28;20077;-82
2021/12/20 03:52:50;;;;;;;7.28;1.50;;;8.80;82.40;;;;;;5090507;28;20048;-82
2021/12/20 03:55:16;;;;;;;9.38;1.80;;;8.80;82.40;;;;;;5093104;28;20065;-82
2021/12/20 03:57:41;;;;;;;10.38;2.17;;;8.80;82.30;;;;;;5102808;28;20069;-82
2021/12/20 04:00:11;;;;;;;8.57;1.80;;;8.80;82.20;;;;;;5084340;28;20088;-82
2021/12/20 04:02:43;;;;;;;6.78;1.60;;;8.70;82.10;;;;;;5091308;28;20028;-82
2021/12/20 04:05:10;;;;;;;7.72;1.67;;;8.70;82.20;;;;;;5095024;28;20097;-80
2021/12/20 04:07:36;;;;;;;6.05;1.90;;;8.70;82.20;;;;;;5094131;28;20016;-82
2021/12/20 04:10:02;;;;;;;6.85;1.67;;;8.70;82.20;;;;;;5095223;28;20128;-82
2021/12/20 04:12:28;;;;;;;8.20;1.60;;;8.70;82.20;;;;;;5099738;28;20019;-82
2021/12/20 04:14:53;;;;;;;7.20;1.60;;;8.70;82.10;;;;;;5090235;28;20031;-81
2021/12/20 04:17:19;;;;;;;6.18;1.50;;;8.70;82.10;;;;;;5090803;28;20020;-81
2021/12/20 04:19:44;;;;;;;8.32;1.98;;;8.70;82.20;;;;;;5099913;28;20474;-82
2021/12/20 04:22:10;;;;;;;9.75;1.75;;;8.70;82.20;;;;;;5100427;28;20019;-82
2021/12/20 04:24:36;;;;;;;4.22;1.60;;;8.70;82.10;;;;;;5083721;28;20032;-82
2021/12/20 04:27:01;;;;;;;6.55;1.60;;;8.70;82.20;;;;;;5096683;28;20023;-82
2021/12/20 04:29:28;;;;;;;9.40;1.70;;;8.60;82.00;;;;;;5098473;28;20386;-81
2021/12/20 04:31:54;;;;;;;4.75;1.80;;;8.60;81.80;;;;;;5090694;28;20091;-83
2021/12/20 04:34:20;;;;;;;6.47;1.70;;;8.60;81.80;;;;;;5086342;28;20053;-82
2021/12/20 04:36:45;;;;;;;6.38;1.50;;;8.60;81.90;;;;;;5090085;28;20032;-81
2021/12/20 04:39:15;;;;;;;6.68;1.70;;;8.60;81.70;;;;;;5090919;28;20402;-82
2021/12/20 04:41:41;;;;;;;8.23;1.67;;;8.60;81.60;;;;;;5087250;28;20089;-81
2021/12/20 04:44:06;;;;;;;6.60;1.60;;;8.50;81.40;;;;;;5089631;28;20444;-83
2021/12/20 04:46:32;;;;;;;8.15;1.52;;;8.50;81.30;;;;;;5089452;28;20359;-83
2021/12/20 04:48:57;;;;;;;9.43;1.92;;;8.50;81.30;;;;;;5094902;28;20115;-82
2021/12/20 04:51:23;;;;;;;7.53;1.52;;;8.50;81.20;;;;;;5091150;28;20081;-83
2021/12/20 04:53:48;;;;;;;7.80;1.77;;;8.50;81.10;;;;;;5095343;28;20031;-82
2021/12/20 04:56:14;;;;;;;6.72;1.50;;;8.50;81.10;;;;;;5095632;27;20123;-82
2021/12/20 04:58:40;;;;;;;9.05;1.85;;;8.50;81.00;;;;;;5097568;28;20027;-83
2021/12/20 05:01:06;;;;;;;5.38;1.60;;;8.60;81.10;;;;;;5100631;28;20023;-83
2021/12/20 05:03:32;;;;;;;8.55;2.05;;;8.60;80.90;;;;;;5092271;28;20081;-82
2021/12/20 05:05:58;;;;;;;8.90;1.80;;;8.60;80.80;;;;;;5099395;28;20019;-83
2021/12/20 05:08:32;;;;;;;7.20;1.55;;;8.60;80.80;;;;;;5086308;28;20040;-83
2021/12/20 05:10:57;;;;;;;7.60;1.83;;;8.60;80.70;;;;;;5084203;28;20017;-82
2021/12/20 05:13:23;;;;;;;7.50;1.40;;;8.60;80.70;;;;;;5099263;28;20427;-81
2021/12/20 05:15:48;;;;;;;7.10;2.08;;;8.70;80.70;;;;;;5085658;28;20489;-82
2021/12/20 05:18:14;;;;;;;6.35;1.80;;;8.70;80.60;;;;;;5090677;28;20032;-82
2021/12/20 05:20:39;;;;;;;7.78;1.80;;;8.60;80.50;;;;;;5100604;28;20065;-82
2021/12/20 05:23:07;;;;;;;6.22;1.52;;;8.60;80.50;;;;;;5104221;28;20081;-83
2021/12/20 05:25:34;;;;;;;6.30;1.60;;;8.60;80.50;;;;;;5100052;28;20021;-82
2021/12/20 05:28:00;;;;;;;7.13;1.60;;;8.60;80.50;;;;;;5098194;27;20015;-80
2021/12/20 05:30:26;;;;;;;8.82;1.45;;;8.60;80.40;;;;;;5090202;28;20035;-84
2021/12/20 05:32:52;;;;;;;6.72;1.50;;;8.60;80.40;;;;;;5092152;28;20804;-80
2021/12/20 05:35:19;;;;;;;5.88;1.48;;;8.50;80.30;;;;;;5092623;28;20032;-81
2021/12/20 05:37:45;;;;;;;6.57;1.90;;;8.60;80.30;;;;;;5091969;28;20107;-82
2021/12/20 05:40:12;;;;;;;7.32;1.50;;;8.50;80.20;;;;;;5096496;28;20497;-80
2021/12/20 05:42:38;;;;;;;6.25;1.67;;;8.50;80.20;;;;;;5086360;28;20032;-81
2021/12/20 05:45:05;;;;;;;7.05;1.75;;;8.50;80.10;;;;;;5092342;28;20038;-81
2021/12/20 05:47:30;;;;;;;6.63;1.50;;;8.50;80.10;;;;;;5092344;28;20036;-81
2021/12/20 05:49:56;;;;;;;6.47;1.70;;;8.40;80.00;;;;;;5104037;27;20497;-87
2021/12/20 05:52:21;;;;;;;4.28;1.27;;;8.40;80.10;;;;;;5100856;28;20100;-80
2021/12/20 05:54:47;;;;;;;7.65;1.60;;;8.30;80.20;;;;;;5094079;28;20487;-81
2021/12/20 05:57:13;;;;;;;3.78;1.30;;;8.30;80.20;;;;;;5094481;28;20497;-90
2021/12/20 05:59:38;;;;;;;5.75;1.40;;;8.30;80.20;;;;;;5091114;28;20111;-81
2021/12/20 06:02:04;;;;;;;8.15;1.60;;;8.30;80.20;;;;;;5091891;28;20112;-84
2021/12/20 06:04:30;;;;;;;7.65;1.33;;;8.20;80.10;;;;;;5087756;28;20110;-83
2021/12/20 06:06:55;;;;;;;6.32;1.38;;;8.20;80.20;;;;;;5089277;28;20028;-84
2021/12/20 06:09:21;;;;;;;7.47;1.88;;;8.20;80.30;;;;;;5094538;28;20024;-82
2021/12/20 06:11:47;;;;;;;6.97;1.60;;;8.20;80.20;;;;;;5098053;28;20028;-84
2021/12/20 06:14:13;;;;;;;8.40;1.75;;;8.20;80.30;;;;;;5099949;28;20432;-83
2021/12/20 06:16:39;;;;;;;7.15;1.90;;;8.20;80.20;;;;;;5097171;28;20482;-86
2021/12/20 06:19:05;;;;;;;8.85;2.03;;;8.20;80.10;;;;;;5092267;28;20034;-84
2021/12/20 06:21:31;;;;;;;6.15;1.60;;;8.20;80.00;;;;;;5093326;28;20024;-84
2021/12/20 06:23:56;;;;;;;4.97;1.42;;;8.20;80.00;;;;;;5090663;28;20076;-84
2021/12/20 06:26:24;;;;;;;5.85;1.67;;;8.20;80.10;;;;;;5085008;28;20050;-84
2021/12/20 06:28:51;;;;;;;6.70;1.85;;;8.20;80.00;;;;;;5092467;28;20118;-83
2021/12/20 06:31:17;;;;;;;6.00;1.90;;;8.10;79.90;;;;;;5085522;28;20051;-84
2021/12/20 06:33:43;;;;;;;4.55;1.58;;;8.00;80.10;;;;;;5091820;28;20491;-84
2021/12/20 06:36:08;;;;;;;4.72;1.63;;;8.10;80.20;;;;;;5084079;28;20078;-84
2021/12/20 06:38:35;;;;;;;5.55;1.50;;;8.00;80.10;;;;;;5083330;28;20385;-84
2021/12/20 06:41:01;;;;;;;5.78;1.70;;;8.00;80.20;;;;;;5087423;28;20056;-84
2021/12/20 06:43:30;;;;;;;6.13;1.67;;;8.00;80.70;;;;;;5088094;28;20593;-83
2021/12/20 06:45:55;;;;;;;9.90;1.83;;;7.90;79.80;;;;;;5082003;28;20043;-85
2021/12/20 06:48:21;;;;;;;7.90;1.90;;;7.90;80.00;;;;;;5082949;28;20052;-83
2021/12/20 06:50:46;;;;;;;6.72;2.05;;;7.90;80.10;;;;;;5087098;28;20047;-83
2021/12/20 06:53:12;;;;;;;4.80;1.58;;;8.00;80.10;;;;;;5084617;28;20036;-83
2021/12/20 06:55:37;;;;;;;7.53;2.20;;;8.00;80.20;;;;;;5079581;28;20063;-85
2021/12/20 06:58:05;;;;;;;6.72;1.50;;;7.90;80.10;;;;;;5089953;28;20016;-84
2021/12/20 07:00:30;;;;;;;5.78;1.75;;;7.90;80.10;;;;;;5086843;28;20028;-87
2021/12/20 07:02:56;;;;;;;5.22;1.33;;;7.90;80.10;;;;;;5088121;28;20044;-85
2021/12/20 07:05:23;;;;;;;7.25;2.05;;;7.90;80.10;;;;;;5083901;28;20084;-83
2021/12/20 07:07:48;;;;;;;7.93;1.70;;;7.90;80.10;;;;;;5084501;28;20020;-83
2021/12/20 07:10:14;;;;;;;6.10;1.88;;;7.90;80.10;;;;;;5082433;28;20055;-87
2021/12/20 07:12:39;;;;;;;6.03;1.50;;;7.90;80.10;;;;;;5081624;28;20028;-85
2021/12/20 07:15:09;;;;;;;5.05;1.63;;;8.00;80.10;;;;;;5076754;28;20032;-84
2021/12/20 07:17:35;;;;;;;4.82;1.40;;;8.00;80.10;;;;;;5085704;28;20021;-84
2021/12/20 07:20:00;;;;;;;8.43;1.65;;;8.00;80.00;;;;;;5078234;28;20031;-84
2021/12/20 07:22:26;;;;;;;5.25;1.33;;;8.00;79.80;;;;;;5090900;28;20031;-84
2021/12/20 07:24:52;;;;;;;3.97;1.55;;;8.00;79.80;;;;;;5084118;28;20021;-83
2021/12/20 07:27:18;;;;;;;7.82;1.90;;;8.00;79.80;;;;;;5084980;28;20109;-84
2021/12/20 07:29:44;;;;;;;5.50;1.65;;;8.00;79.70;;;;;;5083631;28;20020;-84
2021/12/20 07:32:11;;;;;;;6.13;1.63;;;8.00;79.70;;;;;;5082665;28;20028;-82
2021/12/20 07:34:37;;;;;;;6.30;1.70;;;8.00;79.70;;;;;;5084506;28;20098;-83
2021/12/20 07:37:03;;;;;;;7.55;1.50;;;8.00;79.60;;;;;;5089743;28;20053;-83
2021/12/20 07:39:29;;;;;;;6.97;1.80;;;8.00;79.60;;;;;;5085228;28;20531;-83
2021/12/20 07:41:54;;;;;;;7.20;1.40;;;8.00;79.50;;;;;;5081044;28;20028;-83
2021/12/20 07:44:21;;;;;;;6.32;1.58;;;8.00;79.60;;;;;;5079865;28;20028;-84
2021/12/20 07:46:47;;;;;;;5.70;1.75;;;8.00;79.50;;;;;;5089299;28;20039;-83
2021/12/20 07:49:12;;;;;;;5.35;1.75;;;8.10;79.60;;;;;;5093425;28;20119;-84
2021/12/20 07:51:38;;;;;;;6.25;1.33;;;8.00;79.50;;;;;;5090510;28;20397;-83
2021/12/20 07:54:04;;;;;;;6.18;1.70;;;8.00;79.60;;;;;;5081600;28;20020;-83
2021/12/20 07:56:29;;;;;;;7.22;1.63;;;8.00;79.60;;;;;;5083035;28;20035;-83
2021/12/20 07:58:54;;;;;;;7.18;1.83;;;7.90;79.60;;;;;;5092544;27;20089;-85
2021/12/20 08:01:22;;;;;;;6.00;1.40;;;8.00;79.80;;;;;;5080506;28;20032;-91
2021/12/20 08:03:48;;;;;;;4.90;1.80;;;7.90;79.80;;;;;;5092475;28;20021;-85
2021/12/20 08:06:14;;;;;;;5.03;1.77;;;7.90;79.90;;;;;;5092314;28;20019;-87
2021/12/20 08:08:40;;;;;;;3.55;1.33;;;7.90;80.00;;;;;;5096065;28;20673;-86
2021/12/20 08:11:06;;;;;;;8.63;1.60;;;7.90;80.00;;;;;;5092771;28;20020;-82
2021/12/20 09:31:26;;;;;;;6.32;1.90;;;7.90;80.00;;;;;;5092482;28;20077;-84
2021/12/20 09:33:52;;;;;;;6.15;1.90;;;7.90;79.80;;;;;;5083368;28;20390;-86
2021/12/20 09:36:17;;;;;;;6.22;1.90;;;7.90;79.40;;;;;;5097138;28;20031;-88
2021/12/20 09:38:43;;;;;;;5.88;2.05;;;7.90;79.20;;;;;;5094903;28;20343;-87
2021/12/20 09:43:52;;;;;;;6.03;1.73;;;7.90;78.70;;;;;;5084297;28;20028;-85
2021/12/20 09:46:18;;;;;;;11.73;2.75;;;7.90;78.40;;;;;;5078941;28;20048;-84
2021/12/20 09:48:52;;;;;;;6.22;2.28;;;7.80;77.70;;;;;;5095923;28;20540;-85
2021/12/20 09:51:18;;;;;;;5.93;1.80;;;7.80;78.10;;;;;;5088499;28;20025;-85
2021/12/20 09:53:43;;;;;;;9.15;2.15;;;7.90;78.40;;;;;;5092586;28;20020;-84
2021/12/20 09:56:09;;;;;;;5.35;1.52;;;7.90;78.40;;;;;;5102007;28;20024;-86
2021/12/20 09:58:40;;;;;;;6.07;1.50;;;7.90;78.40;;;;;;5087492;28;20686;-85
2021/12/20 10:01:09;;;;;;;3.80;1.48;;;8.00;78.30;;;;;;5088630;28;20053;-84
2021/12/20 10:03:36;;;;;;;8.15;2.00;;;8.00;78.30;;;;;;5090140;28;20109;-82
2021/12/20 10:06:02;;;;;;;7.53;1.95;;;8.00;78.00;;;;;;5080691;28;20016;-89
2021/12/20 10:08:34;;;;;;;7.97;1.85;;;7.90;77.90;;;;;;5082311;28;20498;-85
2021/12/20 10:11:18;;;;;;;8.50;2.50;;;7.90;77.50;;;;;;5082895;28;20039;-86
2021/12/20 10:13:44;;;;;;;12.45;2.80;;;7.90;77.10;;;;;;5081915;28;20028;-86
2021/12/20 10:16:24;;;;;;;10.35;2.10;;;7.80;76.80;;;;;;5081595;28;20028;-84
2021/12/20 10:18:49;;;;;;;8.50;2.10;;;7.80;77.20;;;;;;5090546;28;21292;-84
2021/12/20 10:21:16;;;;;;;7.68;2.50;;;7.80;77.20;;;;;;5083716;28;20024;-84
2021/12/20 10:23:45;;;;;;;7.57;2.00;;;7.90;77.10;;;;;;5083806;28;20026;-86
2021/12/20 10:26:20;;;;;;;6.38;1.75;;;7.90;77.20;;;;;;5082771;28;20027;-84
2021/12/20 10:28:52;;;;;;;6.70;1.90;;;7.90;77.40;;;;;;5086233;28;20757;-85
2021/12/20 10:31:23;;;;;;;8.85;1.80;;;8.00;77.40;;;;;;5084371;28;20073;-83
2021/12/20 10:34:00;;;;;;;8.98;2.25;;;8.00;77.50;;;;;;5083254;28;20027;-82
2021/12/20 10:36:26;;;;;;;8.52;1.95;;;8.10;77.70;;;;;;5081476;28;20491;-83
2021/12/20 10:38:56;;;;;;;6.45;1.70;;;8.10;77.50;;;;;;5085828;28;20031;-84
2021/12/20 10:41:33;;;;;;;7.60;1.83;;;8.10;77.50;;;;;;5084228;28;20439;-89
2021/12/20 10:44:03;;;;;;;7.75;1.83;;;8.20;77.60;;;;;;5093029;28;20046;-86
2021/12/20 10:46:34;;;;;;;6.20;2.10;;;8.30;77.70;;;;;;5091246;28;20020;-83
2021/12/20 10:49:11;;;;;;;8.30;2.47;;;8.30;77.60;;;;;;5088604;28;20027;-85
2021/12/20 10:51:40;;;;;;;10.38;2.45;;;8.20;76.90;;;;;;5088977;28;20869;-85
2021/12/20 10:54:10;;;;;;;8.63;2.05;;;8.20;76.90;;;;;;5084346;28;20016;-86
2021/12/20 10:56:54;;;;;;;9.75;2.38;;;8.20;77.00;;;;;;5087838;28;20555;-85
2021/12/20 10:59:22;;;;;;;10.63;2.25;;;8.10;76.30;;;;;;5081060;28;20386;-87
2021/12/20 11:04:48;;;;;;;10.73;2.70;;;8.00;74.80;;;;;;5093966;28;20180;-88
2021/12/20 11:09:50;;;;;;;11.50;2.70;;;7.90;74.80;;;;;;5104163;28;20040;-89
2021/12/20 11:12:29;;;;;;;7.35;2.45;;;8.00;75.00;;;;;;5088575;28;20012;-85
2021/12/20 11:15:19;;;;;;;7.80;2.30;;;8.00;75.30;;;;;;5085492;28;20158;-88
2021/12/20 11:17:46;;;;;;;9.38;2.67;;;8.00;75.20;;;;;;5088412;28;20111;-84
2021/12/20 11:20:19;;;;;;;12.75;2.95;;;8.10;75.30;;;;;;5084336;28;20024;-88
2021/12/20 11:22:45;;;;;;;9.57;2.60;;;8.10;74.90;;;;;;5085551;28;20023;-82
2021/12/20 11:25:15;;;;;;;11.52;2.40;;;8.10;75.10;;;;;;5084878;28;20020;-86
2021/12/20 11:27:46;;;;;;;10.82;2.35;;;8.20;75.30;;;;;;5081014;28;20057;-82
2021/12/20 11:30:11;;;;;;;13.23;3.05;;;8.20;75.20;;;;;;5084044;28;20497;-81
2021/12/20 11:32:38;;;;;;;12.07;2.40;;;8.20;74.60;;;;;;5081958;28;20024;-82
2021/12/20 11:35:05;;;;;;;4.32;1.48;;;8.20;75.00;;;;;;5078359;28;20682;-82
2021/12/20 11:37:30;;;;;;;11.13;2.70;;;8.30;75.40;;;;;;5081545;28;20729;-82
2021/12/20 11:39:58;;;;;;;10.13;2.28;;;8.40;75.30;;;;;;5078323;28;20024;-85
2021/12/20 11:42:24;;;;;;;6.72;1.90;;;8.40;75.30;;;;;;5080449;28;20030;-84
2021/12/20 11:44:55;;;;;;;11.85;2.90;;;8.50;75.30;;;;;;5082867;28;20024;-84
2021/12/20 11:47:31;;;;;;;8.82;2.00;;;8.50;74.20;;;;;;5081826;28;20024;-84
2021/12/20 11:50:06;;;;;;;12.18;3.13;;;8.40;74.30;;;;;;5081719;28;20085;-83
2021/12/20 11:52:38;;;;;;;12.90;2.85;;;8.50;74.20;;;;;;5081011;28;20096;-83
2021/12/20 11:55:23;;;;;;;11.00;2.47;;;8.50;73.90;;;;;;5090193;28;20024;-85
2021/12/20 11:57:51;;;;;;;13.05;2.58;;;8.40;73.90;;;;;;5099148;28;20374;-84
2021/12/20 12:00:34;;;;;;;11.45;2.63;;;8.40;73.10;;;;;;5083043;28;20020;-85
2021/12/20 12:03:16;;;;;;;10.30;2.38;;;8.40;72.80;;;;;;5094217;28;20051;-85
2021/12/20 12:06:04;;;;;;;12.02;2.45;;;8.40;73.20;;;;;;5078292;28;20043;-85
2021/12/20 12:08:48;;;;;;;8.90;2.10;;;8.40;72.50;;;;;;5078028;28;20035;-85
2021/12/20 12:11:13;;;;;;;9.82;1.90;;;8.50;72.70;;;;;;5083329;28;20040;-86
2021/12/20 12:16:29;;;;;;;6.60;1.73;;;8.60;72.30;;;;;;5088816;28;20154;-80
2021/12/20 12:18:59;;;;;;;10.73;2.33;;;8.60;72.20;;;;;;5085799;28;20022;-83
2021/12/20 12:21:35;;;;;;;7.88;1.85;;;8.70;72.20;;;;;;5083793;28;20115;-83
2021/12/20 12:24:03;;;;;;;9.48;2.45;;;8.80;71.90;;;;;;5085032;28;20024;-86
2021/12/20 12:26:48;;;;;;;8.73;2.20;;;8.80;72.00;;;;;;5084288;28;20020;-83
2021/12/20 12:29:22;;;;;;;10.32;2.22;;;8.90;71.90;;;;;;5082780;28;20036;-86
2021/12/20 12:32:00;;;;;;;9.20;2.65;;;8.90;71.50;;;;;;5084251;28;20052;-91
2021/12/20 12:34:39;;;;;;;8.82;2.35;;;8.70;69.70;;;;;;5081077;28;20031;-83
2021/12/20 12:37:31;;;;;;;9.82;2.65;;;8.70;70.10;;;;;;5080447;28;20147;-85
2021/12/20 12:40:26;;;;;;;7.72;2.08;;;8.70;68.00;;;;;;5104874;27;20742;-83
2021/12/20 12:42:57;;;;;;;6.47;2.10;;;8.50;67.00;;;;;;5085321;28;20088;-82
2021/12/20 12:45:52;;;;;;;9.02;2.33;;;8.50;67.50;;;;;;5094017;28;20025;-85
2021/12/20 12:48:43;;;;;;;7.63;1.90;;;8.40;67.60;;;;;;5084952;28;20032;-83
2021/12/20 12:51:18;;;;;;;4.68;1.85;;;8.40;67.70;;;;;;5081922;28;20032;-83
2021/12/20 12:53:46;;;;;;;10.35;2.58;;;8.30;67.40;;;;;;5080679;28;20017;-84
2021/12/20 12:56:28;;;;;;;6.97;2.30;;;8.30;67.90;;;;;;5093734;28;20028;-83
2021/12/20 12:59:13;;;;;;;10.02;2.90;;;8.30;68.60;;;;;;5084588;28;20575;-83
2021/12/20 13:01:49;;;;;;;10.77;3.00;;;8.20;69.20;;;;;;5084216;28;20071;-84
2021/12/20 13:04:16;;;;;;;11.73;2.90;;;8.10;69.90;;;;;;5089055;28;20024;-86
2021/12/20 13:06:42;;;;;;;10.70;2.60;;;8.20;70.60;;;;;;5088258;28;20028;-84
2021/12/20 13:09:08;;;;;;;9.98;2.28;;;8.20;70.80;;;;;;5083925;28;20066;-88
2021/12/20 13:11:34;;;;;;;11.75;3.03;;;8.20;70.80;;;;;;5081672;28;20024;-84
2021/12/20 13:14:17;;;;;;;6.35;2.30;;;8.20;70.10;;;;;;5084596;28;20023;-84
2021/12/20 13:16:56;;;;;;;8.95;2.88;;;8.20;70.30;;;;;;5087152;28;20051;-85
2021/12/20 13:19:29;;;;;;;11.45;2.70;;;8.20;70.20;;;;;;5085986;28;20383;-83
2021/12/20 13:22:03;;;;;;;11.23;2.80;;;8.20;70.30;;;;;;5087063;28;20842;-82
2021/12/20 13:24:30;;;;;;;14.05;3.10;;;8.20;69.70;;;;;;5089608;28;20036;-84
2021/12/20 13:27:08;;;;;;;12.48;3.53;;;8.10;69.30;;;;;;5085888;28;20020;-85
2021/12/20 13:29:34;;;;;;;8.25;2.88;;;8.10;69.40;;;;;;5098098;28;20093;-84
2021/12/20 13:32:05;;;;;;;11.70;2.75;;;8.00;69.70;;;;;;5095381;28;20012;-86
2021/12/20 13:34:31;;;;;;;9.27;2.55;;;8.00;70.00;;;;;;5093922;28;20172;-83
2021/12/20 13:36:57;;;;;;;10.93;3.35;;;8.00;70.10;;;;;;5080687;28;20115;-86
2021/12/20 13:39:23;;;;;;;11.25;3.03;;;7.90;69.80;;;;;;5083537;28;20075;-83
2021/12/20 13:41:48;;;;;;;10.68;2.40;;;7.90;70.10;;;;;;5099121;28;20052;-87
2021/12/20 13:44:19;;;;;;;7.65;2.67;;;7.90;70.70;;;;;;5086040;28;20422;-82
2021/12/20 13:46:49;;;;;;;8.20;2.40;;;8.00;71.10;;;;;;5084406;28;20047;-84
2021/12/20 13:49:21;;;;;;;9.73;2.45;;;8.00;71.30;;;;;;5094982;28;20074;-83
2021/12/20 13:51:51;;;;;;;;;;;8.00;71.20;;;;;;5083435;28;20479;-82
2021/12/20 13:54:34;;;;;;;11.05;3.22;;;7.90;70.90;;;;;;5084157;28;19937;-83
2021/12/20 13:57:16;;;;;;;10.30;2.80;;;7.80;71.30;;;;;;5084390;28;20028;-87
2021/12/20 13:59:57;;;;;;;12.52;3.15;;;7.90;71.60;;;;;;5087432;28;20511;-84
2021/12/20 14:02:33;;;;;;;9.30;2.80;;;7.90;71.70;;;;;;5086109;28;20662;-85
2021/12/20 14:05:18;;;;;;;11.68;2.80;;;7.90;72.00;;;;;;5076856;28;20220;-83
2021/12/20 14:07:50;;;;;;;10.85;3.10;;;8.00;72.20;;;;;;5083927;28;20035;-86
2021/12/20 14:10:17;;;;;;;8.63;2.53;;;8.00;72.20;;;;;;5082702;28;20041;-83
2021/12/20 14:13:06;;;;;;;12.70;2.47;;;8.00;72.10;;;;;;5084108;28;20036;-88
2021/12/20 14:15:37;;;;;;;12.55;2.58;;;7.90;71.40;;;;;;5077976;28;20085;-85
2021/12/20 14:18:06;;;;;;;6.35;2.10;;;7.90;70.80;;;;;;5089162;28;20061;-83
2021/12/20 14:20:52;;;;;;;11.45;2.45;;;7.80;70.80;;;;;;5079756;28;20032;-82
2021/12/20 14:23:30;;;;;;;5.47;2.10;;;7.70;70.50;;;;;;5083376;28;20060;-84
2021/12/20 14:26:16;;;;;;;10.43;2.45;;;7.70;70.50;;;;;;5079934;28;20063;-81
2021/12/20 14:28:44;;;;;;;9.63;2.72;;;7.80;70.80;;;;;;5089747;28;20431;-82
2021/12/20 14:31:12;;;;;;;9.38;2.95;;;7.70;70.30;;;;;;5082153;28;20031;-83
2021/12/20 14:33:52;;;;;;;8.20;2.38;;;7.60;70.40;;;;;;5087912;28;20544;-85
2021/12/20 14:36:20;;;;;;;8.50;2.17;;;7.70;70.60;;;;;;5069532;28;20078;-84
2021/12/20 14:38:55;;;;;;;9.82;2.40;;;7.70;70.90;;;;;;5087054;28;20066;-85
2021/12/20 14:41:21;;;;;;;11.65;2.90;;;7.60;71.00;;;;;;5092527;28;20122;-85
2021/12/20 14:43:48;;;;;;;7.47;2.60;;;7.70;71.30;;;;;;5087565;28;20134;-86